Time;durP1;ratioP1;P1;durP2;ratioP2;P2;SDS_P1;SDS_P2;PMS_P1;PMS_P2;Temp;Humidity;BMP_temperature;BMP_pressure;BME280_temperature;BME280_humidity;BME280_pressure;Samples;Min_cycle;Max_cycle;Signal;HPM_P1;HPM_P2
2022/04/28 00:02:17;;;;;;;11.13;4.88;;;;;;;6.34;63.90;102828.94;4983828;28;20435;-81
2022/04/28 00:04:43;;;;;;;13.23;4.55;;;;;;;6.31;63.23;102835.00;4998021;28;20035;-81
2022/04/28 00:07:08;;;;;;;13.23;4.65;;;;;;;6.27;64.54;102829.63;5013756;28;20508;-81
2022/04/28 00:09:34;;;;;;;9.40;4.38;;;;;;;6.25;63.76;102832.19;5013202;28;20114;-81
2022/04/28 00:11:59;;;;;;;14.00;5.30;;;;;;;6.23;64.17;102833.88;4981649;28;20458;-81
2022/04/28 00:14:25;;;;;;;10.60;4.55;;;;;;;6.20;64.20;102837.31;5013987;28;20033;-81
2022/04/28 00:16:50;;;;;;;13.77;5.00;;;;;;;6.18;64.70;102839.03;4997841;28;20046;-81
2022/04/28 00:19:16;;;;;;;13.55;5.47;;;;;;;6.15;65.42;102840.69;5031597;28;20139;-81
2022/04/28 00:21:41;;;;;;;11.45;5.10;;;;;;;6.09;65.68;102840.53;5014128;28;20061;-81
2022/04/28 00:24:07;;;;;;;14.45;5.30;;;;;;;6.07;65.14;102842.22;5002814;28;20030;-81
2022/04/28 00:26:33;;;;;;;13.32;5.10;;;;;;;5.95;65.61;102830.47;5010717;28;20597;-81
2022/04/28 00:28:58;;;;;;;14.27;5.18;;;;;;;5.99;65.87;102847.25;4994216;28;20034;-81
2022/04/28 00:31:24;;;;;;;14.85;5.28;;;;;;;5.95;65.47;102842.75;5010335;28;20104;-81
2022/04/28 00:33:49;;;;;;;11.23;4.97;;;;;;;5.90;65.35;102831.16;5011696;28;20050;-81
2022/04/28 00:36:15;;;;;;;16.73;5.38;;;;;;;5.87;65.15;102833.72;5010440;28;20069;-80
2022/04/28 00:38:41;;;;;;;9.55;4.88;;;;;;;5.84;65.70;102837.13;5010255;28;20061;-80
2022/04/28 00:41:07;;;;;;;14.85;5.30;;;;;;;5.78;65.61;102831.69;5011549;28;20502;-80
2022/04/28 00:43:33;;;;;;;20.75;5.43;;;;;;;5.73;66.63;102836.81;4993952;28;20037;-80
2022/04/28 00:45:59;;;;;;;12.80;5.18;;;;;;;5.66;65.47;102831.31;4994006;28;20042;-80
2022/04/28 00:51:12;;;;;;;8.98;4.90;;;;;;;5.64;65.42;102833.91;5011486;28;20048;-81
2022/04/28 00:53:49;;;;;;;16.65;5.13;;;;;;;5.66;66.06;102839.19;5011252;28;20026;-81
2022/04/28 00:56:15;;;;;;;10.45;5.40;;;;;;;5.61;66.48;102833.78;5011383;28;20141;-80
2022/04/28 00:58:41;;;;;;;17.27;5.07;;;;;;;5.59;66.79;102836.41;4993470;28;20017;-80
2022/04/28 01:01:09;;;;;;;12.93;4.97;;;;;;;5.58;67.50;102828.47;5018177;28;20115;-80
2022/04/28 01:03:35;;;;;;;12.32;4.85;;;;;;;5.53;66.67;102830.06;5013032;28;20025;-80
2022/04/28 01:06:04;;;;;;;13.32;5.38;;;;;;;5.51;66.41;102829.09;5013574;28;20095;-80
2022/04/28 01:08:33;;;;;;;15.88;5.22;;;;;;;5.47;66.15;102827.25;4993865;28;20022;-80
2022/04/28 01:11:00;;;;;;;11.85;5.25;;;;;;;5.43;65.82;102828.88;4993511;28;20179;-80
2022/04/28 01:13:28;;;;;;;12.65;5.00;;;;;;;5.43;66.81;102822.75;4977336;28;20041;-80
2022/04/28 01:16:13;;;;;;;12.10;5.75;;;;;;;5.41;67.11;102827.94;4979737;28;20041;-80
2022/04/28 01:18:40;;;;;;;11.63;5.85;;;;;;;5.41;67.98;102829.69;5012830;28;20051;-80
2022/04/28 01:21:07;;;;;;;12.88;5.57;;;;;;;5.38;68.56;102840.97;5016538;28;20608;-80
2022/04/28 01:23:35;;;;;;;17.02;5.35;;;;;;;5.37;68.14;102841.84;5016716;28;20041;-80
2022/04/28 01:26:01;;;;;;;11.23;4.72;;;;;;;5.37;67.36;102841.84;5016990;28;20041;-80
2022/04/28 01:28:28;;;;;;;13.63;5.20;;;;;;;5.36;67.05;102845.28;5016504;28;20162;-80
2022/04/28 01:30:53;;;;;;;14.32;5.20;;;;;;;5.33;68.63;102838.19;5017062;28;20111;-80
2022/04/28 01:33:20;;;;;;;13.30;5.55;;;;;;;5.31;68.27;102845.13;5016467;28;20500;-80
2022/04/28 01:35:48;;;;;;;10.40;5.82;;;;;;;5.29;67.84;102838.97;5000893;28;20572;-80
2022/04/28 01:38:14;;;;;;;11.68;5.38;;;;;;;5.27;68.10;102835.41;5016789;28;20065;-80
2022/04/28 01:40:40;;;;;;;13.13;5.30;;;;;;;5.27;68.38;102840.66;5000536;28;20070;-80
2022/04/28 01:43:05;;;;;;;15.77;5.85;;;;;;;5.26;68.21;102844.09;5000177;28;20396;-80
2022/04/28 01:45:31;;;;;;;12.32;5.13;;;;;;;5.25;68.27;102841.44;5000556;28;20026;-80
2022/04/28 01:48:13;;;;;;;14.13;5.30;;;;;;;5.25;68.23;102839.69;5016188;28;20454;-80
2022/04/28 01:56:27;;;;;;;10.23;5.07;;;;;;;5.23;68.43;102833.50;5016240;28;20358;-81
2022/04/28 01:59:15;;;;;;;12.32;4.72;;;;;;;5.23;68.00;102841.38;5009041;28;20096;-80
2022/04/28 02:02:10;;;;;;;12.98;5.25;;;;;;;5.22;68.05;102831.72;5012028;28;20038;-80
2022/04/28 02:04:36;;;;;;;8.65;4.45;;;;;;;5.23;68.17;102835.25;4996646;28;20045;-81
2022/04/28 02:07:02;;;;;;;15.43;6.15;;;;;;;5.21;68.61;102840.44;4988204;28;20029;-81
2022/04/28 02:09:28;;;;;;;14.07;6.07;;;;;;;5.19;68.40;102839.50;4999696;28;20037;-81
2022/04/28 02:11:55;;;;;;;16.30;5.50;;;;;;;5.21;68.26;102839.56;5016038;28;20070;-81
2022/04/28 02:14:43;;;;;;;16.30;5.05;;;;;;;5.20;68.12;102838.66;5023133;28;20532;-80
2022/04/28 02:17:34;;;;;;;13.40;5.32;;;;;;;5.18;68.66;102841.22;4986233;28;20044;-80
2022/04/28 02:20:09;;;;;;;10.68;4.95;;;;;;;5.17;68.48;102842.09;4999897;28;20026;-80
2022/04/28 02:22:37;;;;;;;10.20;5.18;;;;;;;5.15;68.81;102845.50;4999730;28;20116;-80
2022/04/28 02:25:06;;;;;;;13.63;5.38;;;;;;;5.09;68.67;102834.78;4996759;28;20520;-80
2022/04/28 02:27:32;;;;;;;12.30;5.43;;;;;;;5.10;68.83;102844.47;4995960;28;20069;-80
2022/04/28 02:29:57;;;;;;;13.43;5.78;;;;;;;5.07;68.23;102842.63;4996021;28;20038;-80
2022/04/28 02:32:23;;;;;;;14.57;5.63;;;;;;;5.07;68.93;102850.50;4979070;28;20096;-80
2022/04/28 02:34:48;;;;;;;15.32;5.53;;;;;;;5.03;68.38;102842.47;4979521;28;20057;-80
2022/04/28 02:37:14;;;;;;;18.00;5.68;;;;;;;5.03;69.03;102845.09;4995892;28;20109;-80
2022/04/28 02:39:40;;;;;;;11.90;5.50;;;;;;;5.01;69.14;102846.78;4979570;28;20068;-80
2022/04/28 02:42:12;;;;;;;11.13;5.55;;;;;;;4.99;68.88;102845.84;4980511;28;20045;-80
2022/04/28 02:44:38;;;;;;;9.95;5.28;;;;;;;4.96;68.53;102844.00;4996134;28;20320;-80
2022/04/28 02:47:08;;;;;;;15.02;5.93;;;;;;;4.94;69.13;102843.94;4998219;28;20418;-80
2022/04/28 02:49:33;;;;;;;15.68;5.47;;;;;;;4.92;69.30;102842.09;5015053;28;20041;-80
2022/04/28 02:52:04;;;;;;;13.75;5.22;;;;;;;4.88;69.36;102828.00;5015403;28;20064;-80
2022/04/28 02:54:31;;;;;;;11.45;5.70;;;;;;;4.88;69.67;102842.84;5031506;28;20086;-80
2022/04/28 02:56:56;;;;;;;17.33;5.78;;;;;;;4.86;70.06;102840.16;5015319;28;20453;-80
2022/04/28 02:59:22;;;;;;;17.77;6.25;;;;;;;4.85;69.91;102837.50;5032846;28;20390;-80
2022/04/28 03:01:47;;;;;;;13.63;6.00;;;;;;;4.83;70.50;102845.31;5014967;28;20160;-80
2022/04/28 03:04:14;;;;;;;16.17;6.30;;;;;;;4.80;70.52;102839.97;5031539;28;20048;-80
2022/04/28 03:12:09;;;;;;;12.60;5.68;;;;;;;4.76;70.43;102842.44;5001193;28;20049;-80
2022/04/28 03:14:43;;;;;;;9.70;6.10;;;;;;;4.76;71.10;102842.44;5014807;28;20378;-80
2022/04/28 03:17:09;;;;;;;19.48;6.15;;;;;;;4.76;71.07;102839.81;5013854;28;20037;-80
2022/04/28 03:19:35;;;;;;;17.77;6.95;;;;;;;4.74;70.70;102840.63;4995140;28;20338;-80
2022/04/28 03:22:00;;;;;;;15.70;6.70;;;;;;;4.72;70.24;102852.84;4995448;28;20042;-80
2022/04/28 03:24:25;;;;;;;17.05;6.32;;;;;;;4.70;71.22;102845.75;5030426;28;20151;-80
2022/04/28 03:26:51;;;;;;;16.40;6.82;;;;;;;4.69;70.98;102851.81;4998707;28;20041;-80
2022/04/28 03:29:18;;;;;;;12.35;6.22;;;;;;;4.67;70.67;102849.16;4998453;28;20033;-81
2022/04/28 03:31:44;;;;;;;17.90;6.93;;;;;;;4.64;71.28;102846.41;4998331;28;20174;-80
2022/04/28 03:34:48;;;;;;;15.55;6.75;;;;;;;4.66;71.16;102842.13;4960082;28;20133;-81
2022/04/28 03:37:15;;;;;;;14.35;5.63;;;;;;;4.63;70.50;102852.50;4955035;28;20042;-81
2022/04/28 03:39:43;;;;;;;12.73;6.03;;;;;;;4.62;70.84;102852.44;4984100;28;20048;-81
2022/04/28 03:42:08;;;;;;;13.70;6.43;;;;;;;4.60;71.21;102851.50;5014298;28;20033;-81
2022/04/28 03:44:35;;;;;;;16.45;6.90;;;;;;;4.57;70.79;102852.28;5010943;28;20037;-80
2022/04/28 03:47:02;;;;;;;14.02;5.88;;;;;;;4.57;71.09;102848.78;5011149;28;20421;-80
2022/04/28 03:49:27;;;;;;;19.17;6.22;;;;;;;4.53;71.69;102848.69;5010965;28;20053;-80
2022/04/28 03:51:54;;;;;;;13.02;6.18;;;;;;;4.52;71.30;102844.28;5011091;28;20043;-80
2022/04/28 03:54:19;;;;;;;19.92;6.55;;;;;;;4.52;71.66;102852.16;5010650;28;20406;-80
2022/04/28 03:56:45;;;;;;;12.43;6.53;;;;;;;4.50;72.07;102845.03;4993801;28;20045;-80
2022/04/28 03:59:11;;;;;;;17.45;6.90;;;;;;;4.48;71.67;102846.75;5013875;28;20053;-80
2022/04/28 04:02:02;;;;;;;;;;;;;;;4.55;69.05;102847.81;5016197;28;20042;-80
2022/04/28 04:04:28;;;;;;;17.30;6.40;;;;;;;4.49;71.24;102856.38;5013853;28;19940;-80
2022/04/28 04:06:58;;;;;;;9.65;6.15;;;;;;;4.44;71.73;102853.59;5013969;28;20090;-80
2022/04/28 04:09:39;;;;;;;16.38;6.20;;;;;;;4.44;72.12;102857.94;4985626;28;20069;-80
2022/04/28 04:12:14;;;;;;;11.52;6.13;;;;;;;4.43;71.75;102858.81;5013537;28;20061;-80
2022/04/28 04:15:12;;;;;;;13.23;6.50;;;;;;;4.41;72.63;102850.88;4996465;28;20560;-80
2022/04/28 04:17:55;;;;;;;18.90;7.60;;;;;;;4.41;72.78;102863.09;5030482;28;20045;-80
2022/04/28 04:20:25;;;;;;;12.25;6.88;;;;;;;4.39;72.74;102860.41;5014184;28;20041;-80
2022/04/28 04:22:54;;;;;;;17.30;7.03;;;;;;;4.38;73.42;102860.38;5013644;28;20056;-80
2022/04/28 04:25:20;;;;;;;18.10;7.07;;;;;;;4.37;72.86;102862.06;5013700;28;20111;-80
2022/04/28 04:27:49;;;;;;;14.65;6.97;;;;;;;4.37;72.88;102863.81;5013634;28;20421;-80
2022/04/28 04:33:19;;;;;;;18.85;7.28;;;;;;;4.36;72.59;102865.56;5031143;28;20045;-80
2022/04/28 04:35:45;;;;;;;12.68;7.03;;;;;;;4.35;73.22;102870.72;5013613;28;20496;-80
2022/04/28 04:38:10;;;;;;;13.05;7.28;;;;;;;4.36;73.03;102867.28;5013600;28;20449;-80
2022/04/28 04:40:36;;;;;;;16.20;7.60;;;;;;;4.37;73.60;102866.44;5013865;28;20060;-80
2022/04/28 04:43:03;;;;;;;22.13;7.93;;;;;;;4.38;74.01;102870.88;4997233;28;20060;-80
2022/04/28 04:45:28;;;;;;;13.07;6.57;;;;;;;4.37;73.07;102876.94;5013266;28;20124;-80
2022/04/28 04:48:24;;;;;;;15.23;7.22;;;;;;;4.41;73.74;102884.09;4977433;28;20147;-80
2022/04/28 04:50:52;;;;;;;20.55;8.60;;;;;;;4.41;73.74;102876.22;5030201;28;20120;-80
2022/04/28 04:53:30;;;;;;;21.38;7.75;;;;;;;4.43;73.50;102887.66;4984295;28;20049;-80
2022/04/28 04:55:57;;;;;;;21.00;8.07;;;;;;;4.42;74.04;102888.47;5013148;28;20401;-80
2022/04/28 04:58:22;;;;;;;16.90;7.75;;;;;;;4.44;74.39;102889.44;5030140;28;20095;-80
2022/04/28 05:00:48;;;;;;;15.77;7.53;;;;;;;4.46;73.63;102891.28;4997032;28;20485;-80
2022/04/28 05:03:29;;;;;;;13.35;6.82;;;;;;;4.51;73.47;102894.06;5031280;28;20065;-80
2022/04/28 05:05:57;;;;;;;15.80;7.50;;;;;;;4.53;73.90;102893.28;5031352;28;20041;-80
2022/04/28 05:08:36;;;;;;;17.83;7.57;;;;;;;4.57;73.33;102891.66;5029575;28;20048;-80
2022/04/28 05:11:05;;;;;;;16.08;8.02;;;;;;;4.60;73.67;102897.03;4997498;28;20053;-80
2022/04/28 05:13:31;;;;;;;32.00;8.73;;;;;;;4.63;73.98;102894.50;5029461;28;20045;-80
2022/04/28 05:16:00;;;;;;;20.67;8.30;;;;;;;4.67;74.44;102898.13;4981924;28;20079;-80
2022/04/28 05:18:44;;;;;;;24.80;8.38;;;;;;;4.73;73.76;102906.22;5020538;28;20034;-80
2022/04/28 05:21:42;;;;;;;15.85;7.60;;;;;;;4.77;73.70;102910.72;4957130;28;20403;-80
2022/04/28 05:24:31;;;;;;;13.70;6.80;;;;;;;4.84;73.56;102914.47;5001389;28;20128;-80
2022/04/28 05:26:56;;;;;;;16.70;7.95;;;;;;;4.86;74.26;102907.53;4993617;28;20169;-80
2022/04/28 05:29:40;;;;;;;21.02;8.63;;;;;;;4.90;73.77;102910.31;5011330;28;20052;-80
2022/04/28 05:32:19;;;;;;;21.33;8.77;;;;;;;4.98;74.26;102918.47;4993273;28;20107;-80
2022/04/28 05:34:51;;;;;;;19.95;8.63;;;;;;;5.04;74.13;102918.66;4970479;28;20055;-80
2022/04/28 05:37:20;;;;;;;18.70;8.73;;;;;;;5.11;73.64;102919.78;4970878;28;20043;-80
2022/04/28 05:39:46;;;;;;;19.05;8.43;;;;;;;5.17;74.24;102930.50;4986534;28;20058;-80
2022/04/28 05:42:12;;;;;;;21.05;9.23;;;;;;;5.22;73.73;102926.28;4970873;28;20158;-80
2022/04/28 05:47:24;;;;;;;15.95;9.07;;;;;;;5.37;73.71;102937.31;4970350;28;20129;-81
2022/04/28 05:49:51;;;;;;;15.02;8.75;;;;;;;5.43;74.25;102939.25;4939454;28;20022;-80
2022/04/28 05:52:21;;;;;;;22.77;9.32;;;;;;;5.49;73.74;102933.28;4954318;28;20053;-80
2022/04/28 05:54:49;;;;;;;21.02;9.30;;;;;;;5.56;73.57;102935.25;4970592;28;20073;-80
2022/04/28 05:57:15;;;;;;;18.67;9.13;;;;;;;5.64;74.00;102938.13;4954256;28;20130;-81
2022/04/28 05:59:40;;;;;;;24.20;9.15;;;;;;;5.72;73.73;102940.19;4970562;28;20050;-81
2022/04/28 06:02:25;;;;;;;23.10;10.00;;;;;;;5.84;73.59;102949.31;4957071;28;20038;-81
2022/04/28 06:04:51;;;;;;;20.83;9.52;;;;;;;5.93;72.62;102950.47;4970252;28;20073;-80
2022/04/28 06:07:17;;;;;;;26.98;9.85;;;;;;;6.00;72.64;102948.97;4972041;28;20062;-81
2022/04/28 06:09:49;;;;;;;18.27;9.13;;;;;;;6.10;73.12;102950.13;4988825;28;20360;-81
2022/04/28 06:12:17;;;;;;;19.83;9.40;;;;;;;6.17;72.46;102949.47;4989903;28;20046;-80
2022/04/28 06:15:03;;;;;;;22.38;10.75;;;;;;;6.24;72.38;102959.34;4974162;28;20065;-80
2022/04/28 06:17:54;;;;;;;18.73;9.18;;;;;;;6.33;71.97;102959.63;4986275;28;20050;-80
2022/04/28 06:20:20;;;;;;;18.30;9.32;;;;;;;6.40;71.97;102958.94;4993387;28;20053;-80
2022/04/28 06:23:17;;;;;;;19.00;8.75;;;;;;;6.52;71.74;102960.16;4982064;28;20042;-80
2022/04/28 06:25:47;;;;;;;25.92;9.90;;;;;;;6.62;71.56;102970.09;4961567;28;20506;-80
2022/04/28 06:28:13;;;;;;;21.63;9.30;;;;;;;6.66;71.31;102953.53;4976883;28;20034;-80
2022/04/28 06:30:43;;;;;;;18.52;9.63;;;;;;;6.80;71.28;102972.34;4993519;28;20037;-80
2022/04/28 06:33:27;;;;;;;22.80;9.00;;;;;;;6.91;70.88;102970.03;4994406;28;20053;-80
2022/04/28 06:36:02;;;;;;;18.27;8.45;;;;;;;7.00;71.12;102967.66;5011536;28;20057;-81
2022/04/28 06:38:33;;;;;;;19.80;9.60;;;;;;;7.08;70.33;102966.09;5012307;28;20417;-81
2022/04/28 06:41:01;;;;;;;22.40;9.65;;;;;;;7.17;69.83;102973.34;4996025;28;20136;-81
2022/04/28 06:43:27;;;;;;;20.23;9.65;;;;;;;7.27;69.73;102971.00;4996049;28;20133;-81
2022/04/28 06:46:14;;;;;;;27.83;9.23;;;;;;;7.39;69.50;102967.78;4982418;28;20494;-81
2022/04/28 06:48:58;;;;;;;25.65;9.60;;;;;;;7.49;69.43;102971.53;4979464;28;20462;-81
2022/04/28 06:51:43;;;;;;;21.52;9.27;;;;;;;7.62;68.78;102972.75;4992840;28;20105;-81
2022/04/28 06:54:17;;;;;;;21.85;8.45;;;;;;;7.69;68.03;102959.75;4977264;28;20089;-81
2022/04/28 06:56:45;;;;;;;18.38;8.90;;;;;;;7.80;68.20;102978.47;4941264;28;20042;-81
2022/04/28 06:59:13;;;;;;;16.75;7.50;;;;;;;7.88;67.03;102978.63;4957446;28;20137;-81
2022/04/28 07:01:43;;;;;;;24.67;9.15;;;;;;;7.96;66.87;102982.34;4973028;28;20423;-82
2022/04/28 07:04:09;;;;;;;19.63;8.13;;;;;;;8.07;67.32;102995.81;4989014;28;20361;-82
2022/04/28 07:06:35;;;;;;;25.65;9.77;;;;;;;8.22;67.09;102992.63;4972899;28;20049;-81
2022/04/28 07:09:01;;;;;;;13.63;7.60;;;;;;;8.32;65.70;102997.25;4972677;28;20035;-82
2022/04/28 07:11:27;;;;;;;28.13;8.27;;;;;;;8.40;66.02;102993.91;4956915;28;20043;-82
2022/04/28 07:14:00;;;;;;;19.52;8.55;;;;;;;8.49;65.66;102998.53;4972529;28;20107;-82
2022/04/28 07:16:55;;;;;;;18.98;8.15;;;;;;;8.63;65.79;103004.13;4942132;28;20035;-82
2022/04/28 07:19:24;;;;;;;19.20;8.32;;;;;;;8.74;64.83;103006.97;5002954;28;20050;-82
2022/04/28 07:21:51;;;;;;;26.58;9.07;;;;;;;8.86;64.22;103012.50;4995645;28;20377;-82
2022/04/28 07:24:18;;;;;;;18.02;8.20;;;;;;;8.95;63.84;103007.41;4993439;28;20464;-83
2022/04/28 07:26:43;;;;;;;19.08;8.82;;;;;;;9.09;64.59;103006.75;4991967;28;20023;-82
2022/04/28 07:29:09;;;;;;;22.73;8.35;;;;;;;9.19;63.81;103011.34;4959470;28;20325;-83
2022/04/28 07:31:57;;;;;;;17.75;7.80;;;;;;;9.34;63.45;103008.09;4992879;28;20042;-83
2022/04/28 07:34:42;;;;;;;17.63;7.88;;;;;;;9.38;62.29;103015.25;4979788;28;20133;-83
2022/04/28 07:37:25;;;;;;;19.50;8.30;;;;;;;9.50;62.08;103017.22;4991908;28;20122;-82
2022/04/28 07:40:30;;;;;;;20.00;7.60;;;;;;;9.61;61.52;103008.56;4993024;28;20113;-83
2022/04/28 07:42:59;;;;;;;19.80;7.75;;;;;;;9.75;61.54;103021.16;4991450;28;20042;-83
2022/04/28 07:45:25;;;;;;;18.33;7.70;;;;;;;9.86;61.69;103014.25;4991450;28;20034;-83
2022/04/28 07:47:51;;;;;;;21.95;8.32;;;;;;;9.93;61.19;103010.84;4975311;28;20039;-83
2022/04/28 07:50:24;;;;;;;17.70;7.78;;;;;;;10.04;60.38;103024.25;4991350;28;20030;-83
2022/04/28 07:52:55;;;;;;;21.52;8.00;;;;;;;10.15;60.56;103021.78;4991241;28;20128;-84
2022/04/28 07:55:21;;;;;;;20.48;8.55;;;;;;;10.26;59.33;103026.38;4975144;28;20471;-83
2022/04/28 07:57:49;;;;;;;16.40;7.18;;;;;;;10.36;59.32;103022.13;4975862;28;20045;-83
2022/04/28 08:00:24;;;;;;;24.15;8.52;;;;;;;10.50;59.57;103028.47;4946307;28;20035;-83
2022/04/28 08:02:53;;;;;;;22.85;8.32;;;;;;;10.64;59.19;103030.44;4975547;28;20157;-83
2022/04/28 08:05:24;;;;;;;19.05;8.07;;;;;;;10.81;59.21;103031.53;4976299;28;20095;-83
2022/04/28 08:07:49;;;;;;;16.95;8.02;;;;;;;10.94;58.09;103040.53;4975002;28;20129;-83
2022/04/28 08:10:15;;;;;;;20.10;7.95;;;;;;;11.04;57.63;103044.19;4974707;28;20077;-83
2022/04/28 08:12:41;;;;;;;21.42;7.75;;;;;;;11.09;56.75;103035.38;4974987;28;20030;-83
2022/04/28 08:15:26;;;;;;;17.73;7.13;;;;;;;11.22;56.98;103036.41;4977431;28;20045;-83
2022/04/28 08:17:52;;;;;;;19.02;7.47;;;;;;;11.34;56.11;103041.84;4952255;28;20042;-84
2022/04/28 08:20:18;;;;;;;23.50;7.93;;;;;;;11.47;56.61;103050.81;4957560;28;20133;-85
2022/04/28 08:22:43;;;;;;;20.65;7.70;;;;;;;11.64;55.71;103045.66;4971303;28;20027;-84
2022/04/28 08:25:09;;;;;;;13.20;7.43;;;;;;;11.73;54.78;103056.38;4955652;28;20117;-83
2022/04/28 08:27:36;;;;;;;18.33;6.93;;;;;;;11.81;54.25;103046.69;4939566;28;20046;-83
2022/04/28 08:30:03;;;;;;;18.98;6.20;;;;;;;11.96;54.29;103047.72;4938804;28;20197;-84
2022/04/28 08:32:30;;;;;;;16.52;6.82;;;;;;;12.02;53.13;103042.47;4955199;28;20050;-85
2022/04/28 08:34:56;;;;;;;18.33;7.03;;;;;;;12.04;52.49;103051.31;4962229;28;20058;-84
2022/04/28 08:37:22;;;;;;;19.25;6.35;;;;;;;12.13;52.89;103048.75;4990623;28;20081;-85
2022/04/28 08:39:48;;;;;;;16.35;6.10;;;;;;;12.26;52.15;103045.31;4974301;28;20042;-84
2022/04/28 08:42:15;;;;;;;17.67;5.65;;;;;;;12.32;51.32;103046.22;4990829;28;20121;-84
2022/04/28 08:45:00;;;;;;;13.65;5.65;;;;;;;12.43;50.58;103053.34;4990329;28;20030;-84
2022/04/28 08:47:38;;;;;;;14.95;5.43;;;;;;;12.51;50.70;103052.50;4991758;28;20356;-85
2022/04/28 08:50:27;;;;;;;20.58;5.65;;;;;;;12.58;50.14;103047.22;4959487;28;20050;-83
2022/04/28 08:53:06;;;;;;;13.40;5.32;;;;;;;12.64;49.28;103046.41;4990260;28;20505;-84
2022/04/28 08:55:35;;;;;;;17.27;4.97;;;;;;;12.70;49.52;103047.28;4974697;28;20045;-84
2022/04/28 08:58:01;;;;;;;17.73;6.63;;;;;;;12.75;49.43;103042.00;4974478;28;20320;-84
2022/04/28 09:00:30;;;;;;;13.23;4.40;;;;;;;12.85;49.90;103051.78;4974728;28;20117;-85
2022/04/28 09:03:14;;;;;;;15.20;4.53;;;;;;;12.94;48.17;103050.06;4977316;28;20033;-86
2022/04/28 09:06:24;;;;;;;14.88;4.80;;;;;;;13.07;49.85;103050.09;4977080;28;20208;-85
2022/04/28 09:09:15;;;;;;;11.43;4.60;;;;;;;13.20;48.82;103047.47;4990277;28;20084;-86
2022/04/28 09:12:02;;;;;;;17.33;5.15;;;;;;;13.32;48.01;103043.09;4990565;28;20073;-85
2022/04/28 09:14:47;;;;;;;13.63;4.50;;;;;;;13.33;47.75;103042.22;4976735;28;20048;-85
2022/04/28 09:17:17;;;;;;;11.10;4.75;;;;;;;13.45;47.35;103043.09;4953018;28;20038;-85
2022/04/28 09:19:45;;;;;;;12.25;4.90;;;;;;;13.59;47.38;103030.69;4968783;28;20034;-85
2022/04/28 09:22:24;;;;;;;11.35;4.60;;;;;;;13.77;47.01;103027.16;4976052;28;20068;-86
2022/04/28 09:24:57;;;;;;;12.45;4.72;;;;;;;13.84;46.68;103031.59;4975216;28;20045;-85
2022/04/28 09:27:24;;;;;;;20.85;5.40;;;;;;;13.91;45.97;103035.16;4974707;28;20038;-86
2022/04/28 09:29:54;;;;;;;14.65;4.63;;;;;;;14.02;46.51;103035.13;4990435;28;20053;-86
2022/04/28 09:32:21;;;;;;;13.23;5.32;;;;;;;14.11;46.23;103030.66;4990138;28;20042;-86
2022/04/28 09:35:07;;;;;;;12.73;4.88;;;;;;;14.29;45.35;103023.53;4984100;28;20053;-86
2022/04/28 09:37:47;;;;;;;14.15;5.13;;;;;;;14.29;44.90;103024.44;5015139;28;20091;-86
2022/04/28 09:42:59;;;;;;;13.30;4.65;;;;;;;14.53;44.25;103023.50;5016859;28;20049;-86
2022/04/28 09:45:34;;;;;;;11.48;4.82;;;;;;;14.59;44.21;103015.47;4981852;28;20043;-85
2022/04/28 09:48:03;;;;;;;18.67;5.00;;;;;;;14.66;43.82;103026.13;4997173;28;20461;-87
2022/04/28 09:50:38;;;;;;;12.95;4.88;;;;;;;14.76;43.01;103022.50;4998137;28;20018;-87
2022/04/28 09:53:22;;;;;;;10.05;4.43;;;;;;;14.88;43.48;103019.78;5014952;28;20045;-86
2022/04/28 09:56:06;;;;;;;16.33;5.00;;;;;;;15.05;42.49;103023.25;4986089;28;20111;-86
2022/04/28 09:58:53;;;;;;;14.07;5.18;;;;;;;15.19;42.99;103027.63;5013909;28;20038;-86
2022/04/28 10:01:19;;;;;;;15.20;5.72;;;;;;;15.29;41.60;103015.13;4996756;28;20450;-86
2022/04/28 10:03:45;;;;;;;14.45;5.78;;;;;;;15.40;41.95;103016.78;4996840;28;20037;-87
2022/04/28 10:06:19;;;;;;;12.50;4.82;;;;;;;15.51;41.36;103013.19;4981299;28;20042;-87
2022/04/28 10:08:55;;;;;;;15.70;5.05;;;;;;;15.55;41.58;103005.09;4998380;28;20215;-85
2022/04/28 10:11:22;;;;;;;15.45;5.03;;;;;;;15.66;41.95;103003.25;4996389;28;20556;-85
2022/04/28 10:13:51;;;;;;;14.88;5.03;;;;;;;15.78;40.93;103002.28;4980755;28;20040;-84
2022/04/28 10:16:21;;;;;;;16.63;5.38;;;;;;;15.79;41.38;103000.50;4998254;28;20029;-85
2022/04/28 10:18:57;;;;;;;17.50;5.72;;;;;;;15.88;41.42;102998.63;5026937;28;20504;-86
2022/04/28 10:21:29;;;;;;;22.70;6.13;;;;;;;15.99;40.45;102995.84;5016808;28;20037;-86
2022/04/28 10:32:56;;;;;;;10.65;4.68;;;;;;;16.49;40.73;102996.16;4996075;28;20068;-85
2022/04/28 10:35:35;;;;;;;12.38;5.00;;;;;;;16.62;39.51;102991.56;5005644;28;20393;-85
2022/04/28 10:38:10;;;;;;;13.60;5.82;;;;;;;16.70;40.53;102993.22;5015984;28;20382;-85
2022/04/28 10:40:40;;;;;;;13.40;5.38;;;;;;;16.90;39.63;102997.47;5015530;28;20061;-85
2022/04/28 10:43:26;;;;;;;15.77;5.68;;;;;;;17.07;39.45;102994.53;5015928;28;20025;-85
2022/04/28 10:45:55;;;;;;;14.25;5.70;;;;;;;17.22;38.90;102990.75;5019814;28;20034;-85
2022/04/28 10:48:30;;;;;;;14.57;5.90;;;;;;;17.34;38.66;102972.69;4996523;28;20123;-84
2022/04/28 10:51:12;;;;;;;17.15;5.70;;;;;;;17.49;38.49;102974.22;5012412;28;20169;-85
2022/04/28 10:54:07;;;;;;;19.85;6.53;;;;;;;17.30;38.53;102970.09;5011610;28;20057;-85
2022/04/28 10:56:42;;;;;;;15.20;5.43;;;;;;;17.38;38.66;102982.47;5012469;28;20038;-86
2022/04/28 10:59:29;;;;;;;13.65;6.18;;;;;;;17.53;38.47;102972.38;5012117;28;20494;-85
2022/04/28 11:01:56;;;;;;;14.23;5.75;;;;;;;17.57;37.50;102977.66;5012389;28;20022;-86
2022/04/28 11:04:23;;;;;;;12.10;5.55;;;;;;;17.78;37.49;102979.09;5011972;28;20072;-86
2022/04/28 11:06:55;;;;;;;14.95;5.75;;;;;;;17.84;36.81;102973.63;4995991;28;20468;-86
2022/04/28 11:09:41;;;;;;;11.93;5.95;;;;;;;18.17;38.18;102967.66;4979758;28;20556;-86
2022/04/28 11:12:12;;;;;;;13.00;6.07;;;;;;;18.31;36.66;102965.59;4995884;28;20046;-86
2022/04/28 11:14:50;;;;;;;14.63;6.38;;;;;;;18.36;36.11;102961.00;4979684;28;20124;-86
2022/04/28 11:17:17;;;;;;;14.15;5.63;;;;;;;18.35;37.36;102953.88;5005101;28;20055;-87
2022/04/28 11:19:44;;;;;;;13.80;5.68;;;;;;;18.40;37.20;102961.84;4998896;28;20388;-87
2022/04/28 11:22:13;;;;;;;14.10;6.10;;;;;;;18.61;37.50;102960.50;4999331;28;20037;-87
2022/04/28 11:24:46;;;;;;;15.93;6.28;;;;;;;18.77;37.00;102964.66;4999028;28;20040;-86
2022/04/28 11:27:33;;;;;;;17.52;6.20;;;;;;;19.10;36.09;102962.09;5001667;28;20061;-87
2022/04/28 11:30:19;;;;;;;15.38;5.80;;;;;;;19.15;36.44;102957.47;4988138;28;20132;-87
2022/04/28 11:32:57;;;;;;;12.82;5.95;;;;;;;19.24;36.31;102956.41;5015634;28;20396;-87
2022/04/28 11:35:29;;;;;;;11.07;5.88;;;;;;;19.48;36.62;102954.88;5016359;28;20099;-87
2022/04/28 11:37:55;;;;;;;12.32;6.50;;;;;;;19.43;34.67;102954.97;5016550;28;20163;-87
2022/04/28 11:40:24;;;;;;;12.80;6.15;;;;;;;19.51;35.04;102954.78;5000062;28;20018;-86
2022/04/28 11:42:58;;;;;;;16.45;6.05;;;;;;;19.76;35.32;102947.91;4999744;28;20052;-88
2022/04/28 11:45:26;;;;;;;12.52;5.95;;;;;;;20.08;34.96;102950.59;5027582;28;20395;-87
2022/04/28 11:47:53;;;;;;;14.07;6.00;;;;;;;20.13;33.91;102952.25;5004932;28;20021;-87
2022/04/28 11:50:21;;;;;;;13.32;6.28;;;;;;;20.28;33.87;102950.94;5019929;28;20041;-87
2022/04/28 11:52:58;;;;;;;12.02;5.80;;;;;;;20.01;34.30;102955.28;5001433;28;20030;-88
2022/04/28 11:55:27;;;;;;;13.38;5.88;;;;;;;19.96;34.07;102944.66;4997865;28;20050;-89
2022/04/28 11:57:54;;;;;;;13.00;6.05;;;;;;;20.16;34.10;102953.97;4997153;28;20352;-89
2022/04/28 12:00:20;;;;;;;9.75;5.05;;;;;;;20.46;33.61;102954.88;4980306;28;20045;-88
2022/04/28 12:02:46;;;;;;;17.40;5.50;;;;;;;20.71;32.74;102954.16;5012144;28;20451;-89
2022/04/28 12:05:22;;;;;;;11.98;5.22;;;;;;;20.53;31.98;102945.69;4980053;28;20056;-88
2022/04/28 12:07:52;;;;;;;15.05;5.22;;;;;;;20.46;31.97;102949.50;5012912;28;20038;-88
2022/04/28 12:16:00;;;;;;;17.52;5.22;;;;;;;21.04;31.02;102936.94;5013164;28;20077;-88
2022/04/28 12:21:14;;;;;;;12.88;5.43;;;;;;;21.61;30.60;102939.53;5020310;28;20493;-88
2022/04/28 12:23:41;;;;;;;12.80;5.40;;;;;;;21.81;29.20;102931.66;4997102;28;20034;-88